createdAt,value
2019-02-20T00:00:01.015Z,0.00
2019-02-20T00:01:00.994Z,0.00
2019-02-20T00:02:00.955Z,0.00
2019-02-20T00:03:00.921Z,0.00
2019-02-20T00:04:00.914Z,0.00
2019-02-20T00:05:00.850Z,0.00
2019-02-20T00:06:00.817Z,0.00
2019-02-20T00:07:00.784Z,0.00
2019-02-20T00:08:00.812Z,0.00
2019-02-20T00:09:01.163Z,0.00
2019-02-20T00:10:00.687Z,0.00
2019-02-20T00:11:01.629Z,0.00
2019-02-20T00:12:00.624Z,0.00
2019-02-20T00:13:00.586Z,0.00
2019-02-20T00:14:00.578Z,0.00
2019-02-20T00:15:00.552Z,0.00
2019-02-20T00:16:00.510Z,0.00
2019-02-20T00:17:00.456Z,0.00
2019-02-20T00:18:00.427Z,0.00
2019-02-20T00:19:00.412Z,0.00
2019-02-20T00:20:00.400Z,0.00
2019-02-20T00:21:00.327Z,0.00
2019-02-20T00:22:00.290Z,0.00
2019-02-20T00:23:00.260Z,0.00
2019-02-20T00:24:00.252Z,0.00
2019-02-20T00:25:00.341Z,0.00
2019-02-20T00:26:00.160Z,0.00
2019-02-20T00:27:00.132Z,0.00
2019-02-20T00:28:00.092Z,0.00
2019-02-20T00:29:00.169Z,0.00
2019-02-20T00:30:00.030Z,0.00
2019-02-20T00:31:00.635Z,0.00
2019-02-20T00:32:00.669Z,0.00
2019-02-20T00:32:59.940Z,0.00
2019-02-20T00:33:59.929Z,0.00
2019-02-20T00:34:59.873Z,0.00
2019-02-20T00:36:00.640Z,0.00
2019-02-20T00:36:59.808Z,0.00
2019-02-20T00:37:59.766Z,0.00
2019-02-20T00:38:59.775Z,0.00
2019-02-20T00:39:59.702Z,0.00
2019-02-20T00:40:59.667Z,0.00
2019-02-20T00:41:59.636Z,0.00
2019-02-20T00:42:59.609Z,0.00
2019-02-20T00:43:59.568Z,0.00
2019-02-20T00:44:59.567Z,0.00
2019-02-20T00:45:59.510Z,0.00
2019-02-20T00:47:00.152Z,0.00
2019-02-20T00:47:59.495Z,0.00
2019-02-20T00:48:59.405Z,0.00
2019-02-20T00:49:59.401Z,0.00
2019-02-20T00:50:59.345Z,0.00
2019-02-20T00:51:59.306Z,0.00
2019-02-20T00:53:00.134Z,0.00
2019-02-20T00:54:00.132Z,0.00
2019-02-20T00:54:59.243Z,0.00
2019-02-20T00:56:00.136Z,0.00
2019-02-20T00:57:00.136Z,0.00
2019-02-20T00:57:59.640Z,0.00
2019-02-20T00:58:59.637Z,0.00
2019-02-20T00:59:59.174Z,0.00
2019-02-20T01:00:59.019Z,0.00
2019-02-20T01:01:59.645Z,0.00
2019-02-20T01:02:59.668Z,0.00
2019-02-20T01:03:58.918Z,0.00
2019-02-20T01:04:58.905Z,0.00
2019-02-20T01:05:58.872Z,0.00
2019-02-20T01:06:59.639Z,0.00
2019-02-20T01:07:59.637Z,0.00
2019-02-20T01:08:59.639Z,0.00
2019-02-20T01:09:59.170Z,0.00
2019-02-20T01:10:59.634Z,0.00
2019-02-20T01:11:59.639Z,0.00
2019-02-20T01:12:59.137Z,0.00
2019-02-20T01:13:58.590Z,0.00
2019-02-20T01:14:58.577Z,0.00
2019-02-20T01:15:58.520Z,0.00
2019-02-20T01:16:58.493Z,0.00
2019-02-20T01:17:59.138Z,0.00
2019-02-20T01:18:58.424Z,0.00
2019-02-20T01:19:58.674Z,0.00
2019-02-20T01:20:58.357Z,0.00
2019-02-20T01:21:59.139Z,0.00
2019-02-20T01:23:00.077Z,0.00
2019-02-20T01:23:59.138Z,0.00
2019-02-20T01:24:58.252Z,0.00
2019-02-20T01:25:58.195Z,0.00
2019-02-20T01:26:58.168Z,0.00
2019-02-20T01:27:58.131Z,0.00
2019-02-20T01:28:58.107Z,0.00
2019-02-20T01:29:58.090Z,0.00
2019-02-20T01:30:58.057Z,0.00
2019-02-20T01:31:57.998Z,0.00
2019-02-20T01:32:57.967Z,0.00
2019-02-20T01:33:58.642Z,0.00
2019-02-20T01:34:57.900Z,0.00
2019-02-20T01:35:57.894Z,0.00
2019-02-20T01:36:57.835Z,0.00
2019-02-20T01:37:57.802Z,0.00
2019-02-20T01:38:58.645Z,0.00
2019-02-20T01:39:58.644Z,0.00
2019-02-20T01:40:57.730Z,0.00
2019-02-20T01:41:57.671Z,0.00
2019-02-20T01:42:57.638Z,0.00
2019-02-20T01:43:57.608Z,0.00
2019-02-20T01:44:57.570Z,0.00
2019-02-20T01:45:57.560Z,0.00
2019-02-20T01:46:57.504Z,0.00
2019-02-20T01:47:57.477Z,0.00
2019-02-20T01:48:57.440Z,0.00
2019-02-20T01:49:57.406Z,0.00
2019-02-20T01:50:57.398Z,0.00
2019-02-20T01:51:57.345Z,0.00
2019-02-20T01:52:57.307Z,0.00
2019-02-20T01:53:57.283Z,0.00
2019-02-20T01:54:57.244Z,0.00
2019-02-20T01:55:57.235Z,0.00
2019-02-20T01:56:57.315Z,0.00
2019-02-20T01:57:57.148Z,0.00
2019-02-20T01:58:57.115Z,0.00
2019-02-20T01:59:57.085Z,0.00
2019-02-20T02:00:57.073Z,0.00
2019-02-20T02:01:57.017Z,0.00
2019-02-20T02:02:56.978Z,0.00
2019-02-20T02:03:56.952Z,0.00
2019-02-20T02:04:56.983Z,0.00
2019-02-20T02:05:56.934Z,0.00
2019-02-20T02:06:56.855Z,0.00
2019-02-20T02:07:56.819Z,0.00
2019-02-20T02:08:56.783Z,0.00
2019-02-20T02:09:56.755Z,0.00
2019-02-20T02:10:57.175Z,0.00
2019-02-20T02:11:57.644Z,0.00
2019-02-20T02:12:56.662Z,0.00
2019-02-20T02:13:56.621Z,0.00
2019-02-20T02:14:57.146Z,0.00
2019-02-20T02:15:56.579Z,0.00
2019-02-20T02:16:56.524Z,0.00
2019-02-20T02:17:57.150Z,0.00
2019-02-20T02:18:56.463Z,0.00
2019-02-20T02:19:56.427Z,0.00
2019-02-20T02:20:56.678Z,0.00
2019-02-20T02:21:56.362Z,0.00
2019-02-20T02:22:56.326Z,0.00
2019-02-20T02:23:56.296Z,0.00
2019-02-20T02:24:56.263Z,0.00
2019-02-20T02:25:56.254Z,0.00
2019-02-20T02:26:56.203Z,0.00
2019-02-20T02:27:56.164Z,0.00
2019-02-20T02:28:56.140Z,0.00
2019-02-20T02:29:56.103Z,0.00
2019-02-20T02:30:56.092Z,0.00
2019-02-20T02:31:56.047Z,0.00
2019-02-20T02:32:57.345Z,0.00
2019-02-20T02:33:55.971Z,0.00
2019-02-20T02:34:55.942Z,0.00
2019-02-20T02:35:55.922Z,0.00
2019-02-20T02:36:55.872Z,0.00
2019-02-20T02:37:55.851Z,0.00
2019-02-20T02:38:55.806Z,0.00
2019-02-20T02:39:55.784Z,0.00
2019-02-20T02:40:56.185Z,0.00
2019-02-20T02:41:56.668Z,0.00
2019-02-20T02:42:55.682Z,0.00
2019-02-20T02:43:55.679Z,0.00
2019-02-20T02:44:55.614Z,0.00
2019-02-20T02:45:55.685Z,0.00
2019-02-20T02:46:55.589Z,0.00
2019-02-20T02:47:56.146Z,0.00
2019-02-20T02:48:55.477Z,0.00
2019-02-20T02:49:55.683Z,0.00
2019-02-20T02:50:55.427Z,0.00
2019-02-20T02:51:55.404Z,0.00
2019-02-20T02:52:55.361Z,0.00
2019-02-20T02:53:55.316Z,0.00
2019-02-20T02:54:55.279Z,0.00
2019-02-20T02:55:55.259Z,0.00
2019-02-20T02:56:55.239Z,0.00
2019-02-20T02:57:56.166Z,0.00
2019-02-20T02:58:55.151Z,0.00
2019-02-20T02:59:55.650Z,0.00
2019-02-20T03:00:55.089Z,0.00
2019-02-20T03:01:55.185Z,0.00
2019-02-20T03:02:55.669Z,0.00
2019-02-20T03:03:55.650Z,0.00
2019-02-20T03:04:54.964Z,0.00
2019-02-20T03:05:54.920Z,0.00
2019-02-20T03:06:54.916Z,0.00
2019-02-20T03:07:55.655Z,0.00
2019-02-20T03:08:54.833Z,0.00
2019-02-20T03:09:55.656Z,0.00
2019-02-20T03:10:54.759Z,0.00
2019-02-20T03:11:54.748Z,0.00
2019-02-20T03:12:54.688Z,0.00
2019-02-20T03:13:54.672Z,0.00
2019-02-20T03:14:54.628Z,0.00
2019-02-20T03:15:55.152Z,0.00
2019-02-20T03:16:54.694Z,0.00
2019-02-20T03:17:55.161Z,0.00
2019-02-20T03:18:55.168Z,0.00
2019-02-20T03:19:54.459Z,0.00
2019-02-20T03:20:54.427Z,0.00
2019-02-20T03:21:55.200Z,0.00
2019-02-20T03:22:54.373Z,0.00
2019-02-20T03:23:54.329Z,0.00
2019-02-20T03:24:55.151Z,0.00
2019-02-20T03:25:54.258Z,0.00
2019-02-20T03:26:54.249Z,0.00
2019-02-20T03:27:54.277Z,0.00
2019-02-20T03:28:55.160Z,0.00
2019-02-20T03:29:54.125Z,0.00
2019-02-20T03:30:54.663Z,0.00
2019-02-20T03:31:54.690Z,0.00
2019-02-20T03:32:54.031Z,0.00
2019-02-20T03:33:53.997Z,0.00
2019-02-20T03:34:53.958Z,0.00
2019-02-20T03:35:53.933Z,0.00
2019-02-20T03:36:53.919Z,0.00
2019-02-20T03:37:53.866Z,0.00
2019-02-20T03:38:53.826Z,0.00
2019-02-20T03:39:53.797Z,0.00
2019-02-20T03:40:54.662Z,0.00
2019-02-20T03:41:53.757Z,0.00
2019-02-20T03:42:53.699Z,0.00
2019-02-20T03:43:54.668Z,0.00
2019-02-20T03:44:53.637Z,0.00
2019-02-20T03:45:53.597Z,0.00
2019-02-20T03:46:53.685Z,0.00
2019-02-20T03:47:53.541Z,0.00
2019-02-20T03:48:54.157Z,0.00
2019-02-20T03:49:53.479Z,0.00
2019-02-20T03:50:54.161Z,0.00
2019-02-20T03:51:53.426Z,0.00
2019-02-20T03:52:54.156Z,0.00
2019-02-20T03:53:53.373Z,0.00
2019-02-20T03:54:53.302Z,0.00
2019-02-20T03:55:53.271Z,0.00
2019-02-20T03:56:53.269Z,0.00
2019-02-20T03:57:53.198Z,0.00
2019-02-20T03:58:54.168Z,0.00
2019-02-20T03:59:53.150Z,0.00
2019-02-20T04:00:53.100Z,0.00
2019-02-20T04:01:53.098Z,0.00
2019-02-20T04:02:53.198Z,0.00
2019-02-20T04:03:53.002Z,0.00
2019-02-20T04:04:52.972Z,0.00
2019-02-20T04:05:52.940Z,0.00
2019-02-20T04:06:53.022Z,0.00
2019-02-20T04:07:52.898Z,0.00
2019-02-20T04:08:52.850Z,0.00
2019-02-20T04:09:52.819Z,0.00
2019-02-20T04:10:52.773Z,0.00
2019-02-20T04:11:53.699Z,0.00
2019-02-20T04:12:52.731Z,0.00
2019-02-20T04:13:53.668Z,0.00
2019-02-20T04:14:52.644Z,0.00
2019-02-20T04:15:52.613Z,0.00
2019-02-20T04:16:52.582Z,0.00
2019-02-20T04:17:52.693Z,0.00
2019-02-20T04:18:53.161Z,0.00
2019-02-20T04:19:53.165Z,0.00
2019-02-20T04:20:53.165Z,0.00
2019-02-20T04:21:53.167Z,0.00
2019-02-20T04:22:52.693Z,0.00
2019-02-20T04:24:01.859Z,0.00
2019-02-20T04:24:52.320Z,0.00
2019-02-20T04:25:52.285Z,0.00
2019-02-20T04:26:52.253Z,0.00
2019-02-20T04:27:52.694Z,0.00
2019-02-20T04:28:53.170Z,0.00
2019-02-20T04:29:52.153Z,0.00
2019-02-20T04:30:52.664Z,0.00
2019-02-20T04:31:52.089Z,0.00
2019-02-20T04:32:52.091Z,0.00
2019-02-20T04:33:52.030Z,0.00
2019-02-20T04:34:51.997Z,0.00
2019-02-20T04:35:51.963Z,0.00
2019-02-20T04:36:52.662Z,0.00
2019-02-20T04:37:51.920Z,0.00
2019-02-20T04:38:51.962Z,0.00
2019-02-20T04:39:51.834Z,0.00
2019-02-20T04:40:52.662Z,0.00
2019-02-20T04:41:51.782Z,0.00
2019-02-20T04:42:51.757Z,0.00
2019-02-20T04:43:51.708Z,0.00
2019-02-20T04:44:52.661Z,0.00
2019-02-20T04:45:51.639Z,0.00
2019-02-20T04:46:51.600Z,0.00
2019-02-20T04:47:51.752Z,0.00
2019-02-20T04:48:52.663Z,0.00
2019-02-20T04:49:52.162Z,0.00
2019-02-20T04:50:52.163Z,0.00
2019-02-20T04:51:51.442Z,0.00
2019-02-20T04:52:51.700Z,0.00
2019-02-20T04:53:51.382Z,0.00
2019-02-20T04:54:52.171Z,0.00
2019-02-20T04:55:51.337Z,0.00
2019-02-20T04:56:51.276Z,0.00
2019-02-20T04:57:51.270Z,0.00
2019-02-20T04:58:51.212Z,0.00
2019-02-20T04:59:51.180Z,0.00
2019-02-20T05:00:51.148Z,0.00
2019-02-20T05:01:51.121Z,0.00
2019-02-20T05:02:51.107Z,0.00
2019-02-20T05:03:51.049Z,0.00
2019-02-20T05:04:51.055Z,0.00
2019-02-20T05:05:50.985Z,0.00
2019-02-20T05:06:50.954Z,0.00
2019-02-20T05:07:50.951Z,0.00
2019-02-20T05:08:51.665Z,0.00
2019-02-20T05:09:50.861Z,0.00
2019-02-20T05:10:50.831Z,0.00
2019-02-20T05:11:50.805Z,0.00
2019-02-20T05:12:50.788Z,0.00
2019-02-20T05:13:51.669Z,0.00
2019-02-20T05:14:50.698Z,0.00
2019-02-20T05:15:50.677Z,0.00
2019-02-20T05:16:50.634Z,0.00
2019-02-20T05:17:50.642Z,0.00
2019-02-20T05:18:59.496Z,0.00
2019-02-20T05:20:14.146Z,0.00
2019-02-20T05:20:59.465Z,0.00
2019-02-20T05:21:50.473Z,0.00
2019-02-20T05:22:50.440Z,0.00
2019-02-20T05:23:50.436Z,0.00
2019-02-20T05:24:50.436Z,0.00
2019-02-20T05:25:50.379Z,0.00
2019-02-20T05:26:50.318Z,0.00
2019-02-20T05:27:50.318Z,0.00
2019-02-20T05:28:50.326Z,0.00
2019-02-20T05:29:50.220Z,0.00
2019-02-20T05:30:53.736Z,0.00
2019-02-20T05:31:52.713Z,0.00
2019-02-20T05:32:50.119Z,0.00
2019-02-20T05:33:50.109Z,0.00
2019-02-20T05:34:50.056Z,0.00
2019-02-20T05:35:50.708Z,0.00
2019-02-20T05:36:49.991Z,0.00
2019-02-20T05:37:49.957Z,0.00
2019-02-20T05:38:50.240Z,0.00
2019-02-20T05:39:49.890Z,0.00
2019-02-20T05:40:49.855Z,0.00
2019-02-20T05:41:49.827Z,0.00
2019-02-20T05:42:50.672Z,0.00
2019-02-20T05:43:49.785Z,0.00
2019-02-20T05:44:49.727Z,0.00
2019-02-20T05:45:50.210Z,0.00
2019-02-20T05:46:49.661Z,0.00
2019-02-20T05:47:49.649Z,0.00
2019-02-20T05:48:50.816Z,0.00
2019-02-20T05:49:49.597Z,0.00
2019-02-20T05:50:49.529Z,0.00
2019-02-20T05:51:49.503Z,0.00
2019-02-20T05:52:50.208Z,0.00
2019-02-20T05:53:49.477Z,0.00
2019-02-20T05:54:49.403Z,0.00
2019-02-20T05:55:49.450Z,0.00
2019-02-20T05:56:50.207Z,0.00
2019-02-20T05:57:50.229Z,0.00
2019-02-20T05:58:49.741Z,0.00
2019-02-20T05:59:49.240Z,0.00
2019-02-20T06:00:49.718Z,0.00
2019-02-20T06:01:49.170Z,0.00
2019-02-20T06:02:49.146Z,0.00
2019-02-20T06:03:49.241Z,0.00
2019-02-20T06:04:49.086Z,0.00
2019-02-20T06:05:49.053Z,0.00
2019-02-20T06:06:49.738Z,0.00
2019-02-20T06:07:49.730Z,0.00
2019-02-20T06:08:48.970Z,5.63
2019-02-20T06:09:49.753Z,5.63
2019-02-20T06:10:49.721Z,5.63
2019-02-20T06:11:48.850Z,5.63
2019-02-20T06:12:48.830Z,5.63
2019-02-20T06:13:49.244Z,5.63
2019-02-20T06:14:48.756Z,11.25
2019-02-20T06:15:49.615Z,11.25
2019-02-20T06:16:48.687Z,16.88
2019-02-20T06:17:48.662Z,16.88
2019-02-20T06:18:48.650Z,16.88
2019-02-20T06:19:48.591Z,22.50
2019-02-20T06:20:48.557Z,22.50
2019-02-20T06:21:49.210Z,28.13
2019-02-20T06:22:48.496Z,28.13
2019-02-20T06:23:49.241Z,28.13
2019-02-20T06:24:49.212Z,28.13
2019-02-20T06:25:49.213Z,33.75
2019-02-20T06:26:48.380Z,33.75
2019-02-20T06:27:48.341Z,33.75
2019-02-20T06:28:48.327Z,39.38
2019-02-20T06:29:48.276Z,39.38
2019-02-20T06:30:49.214Z,39.38
2019-02-20T06:31:48.213Z,45.00
2019-02-20T06:32:48.169Z,45.00
2019-02-20T06:33:48.267Z,45.00
2019-02-20T06:34:48.112Z,45.00
2019-02-20T06:35:48.085Z,45.00
2019-02-20T06:36:48.045Z,50.63
2019-02-20T06:37:48.013Z,50.63
2019-02-20T06:38:47.982Z,50.63
2019-02-20T06:39:47.970Z,50.63
2019-02-20T06:40:47.918Z,50.63
2019-02-20T06:41:48.712Z,56.25
2019-02-20T06:42:47.859Z,61.88
2019-02-20T06:43:48.135Z,61.88
2019-02-20T06:44:47.813Z,67.50
2019-02-20T06:45:48.712Z,67.50
2019-02-20T06:46:47.719Z,73.13
2019-02-20T06:47:47.689Z,73.13
2019-02-20T06:48:47.655Z,78.75
2019-02-20T06:49:47.662Z,84.38
2019-02-20T06:50:47.595Z,95.63
2019-02-20T06:51:47.558Z,95.63
2019-02-20T06:52:48.214Z,101.25
2019-02-20T06:53:48.214Z,106.88
2019-02-20T06:54:53.965Z,106.88
2019-02-20T06:55:47.434Z,112.50
2019-02-20T06:56:47.401Z,112.50
2019-02-20T06:57:47.369Z,106.88
2019-02-20T06:58:47.335Z,112.50
2019-02-20T06:59:47.326Z,112.50
2019-02-20T07:00:47.277Z,112.50
2019-02-20T07:01:47.237Z,118.13
2019-02-20T07:02:47.723Z,118.13
2019-02-20T07:03:47.174Z,123.75
2019-02-20T07:04:47.164Z,123.75
2019-02-20T07:05:47.714Z,123.75
2019-02-20T07:06:47.723Z,123.75
2019-02-20T07:07:47.719Z,123.75
2019-02-20T07:08:47.716Z,123.75
2019-02-20T07:09:47.011Z,123.75
2019-02-20T07:10:46.955Z,123.75
2019-02-20T07:11:47.714Z,123.75
2019-02-20T07:12:47.717Z,129.38
2019-02-20T07:13:47.715Z,129.38
2019-02-20T07:14:46.848Z,129.38
2019-02-20T07:15:46.789Z,135.00
2019-02-20T07:16:46.768Z,140.63
2019-02-20T07:17:46.725Z,140.63
2019-02-20T07:18:46.690Z,140.63
2019-02-20T07:19:46.749Z,146.25
2019-02-20T07:20:47.215Z,151.88
2019-02-20T07:21:47.216Z,151.88
2019-02-20T07:22:47.216Z,157.50
2019-02-20T07:23:47.219Z,157.50
2019-02-20T07:24:46.522Z,151.88
2019-02-20T07:25:46.467Z,146.25
2019-02-20T07:26:46.432Z,146.25
2019-02-20T07:27:46.403Z,140.63
2019-02-20T07:28:46.372Z,140.63
2019-02-20T07:29:46.374Z,140.63
2019-02-20T07:30:47.222Z,140.63
2019-02-20T07:31:46.273Z,140.63
2019-02-20T07:32:46.236Z,140.63
2019-02-20T07:33:46.205Z,140.63
2019-02-20T07:34:46.171Z,140.63
2019-02-20T07:35:46.160Z,140.63
2019-02-20T07:36:46.109Z,140.63
2019-02-20T07:37:46.077Z,140.63
2019-02-20T07:38:46.046Z,140.63
2019-02-20T07:39:46.015Z,146.25
2019-02-20T07:40:46.006Z,151.88
2019-02-20T07:41:45.949Z,157.50
2019-02-20T07:42:45.919Z,163.13
2019-02-20T07:43:45.876Z,168.75
2019-02-20T07:44:45.842Z,174.38
2019-02-20T07:45:46.268Z,174.38
2019-02-20T07:46:46.725Z,180.00
2019-02-20T07:47:45.745Z,191.25
2019-02-20T07:48:45.723Z,196.88
2019-02-20T07:49:45.687Z,202.50
2019-02-20T07:50:45.753Z,213.75
2019-02-20T07:51:46.224Z,225.00
2019-02-20T07:52:46.251Z,219.38
2019-02-20T07:53:46.222Z,213.75
2019-02-20T07:54:45.517Z,213.75
2019-02-20T07:55:45.508Z,230.63
2019-02-20T07:56:46.221Z,236.25
2019-02-20T07:57:45.416Z,253.13
2019-02-20T07:58:45.394Z,258.75
2019-02-20T07:59:45.371Z,247.50
2019-02-20T08:00:45.755Z,247.50
2019-02-20T08:01:46.221Z,253.13
2019-02-20T08:02:45.254Z,270.00
2019-02-20T08:03:45.720Z,275.63
2019-02-20T08:04:45.190Z,275.63
2019-02-20T08:05:45.736Z,281.25
2019-02-20T08:06:45.152Z,286.88
2019-02-20T08:07:45.104Z,292.50
2019-02-20T08:08:45.729Z,298.13
2019-02-20T08:09:45.721Z,309.38
2019-02-20T08:10:44.997Z,303.75
2019-02-20T08:11:44.999Z,298.13
2019-02-20T08:12:44.930Z,292.50
2019-02-20T08:13:45.731Z,298.13
2019-02-20T08:14:44.869Z,303.75
2019-02-20T08:15:44.840Z,303.75
2019-02-20T08:16:52.044Z,292.50
2019-02-20T08:17:44.779Z,286.88
2019-02-20T08:18:44.740Z,275.63
2019-02-20T08:19:44.711Z,270.00
2019-02-20T08:20:45.222Z,270.00
2019-02-20T08:21:44.773Z,253.13
2019-02-20T08:22:45.225Z,230.63
2019-02-20T08:23:44.584Z,236.25
2019-02-20T08:24:44.554Z,241.88
2019-02-20T08:25:45.224Z,247.50
2019-02-20T08:26:44.757Z,247.50
2019-02-20T08:27:45.229Z,241.88
2019-02-20T08:28:44.435Z,241.88
2019-02-20T08:29:44.400Z,258.75
2019-02-20T08:30:44.370Z,286.88
2019-02-20T08:31:44.358Z,303.75
2019-02-20T08:32:45.225Z,320.63
2019-02-20T08:33:45.223Z,331.88
2019-02-20T08:34:44.241Z,320.63
2019-02-20T08:35:44.727Z,303.75
2019-02-20T08:36:44.180Z,281.25
2019-02-20T08:37:44.261Z,264.38
2019-02-20T08:38:44.125Z,258.75
2019-02-20T08:39:44.091Z,258.75
2019-02-20T08:40:44.058Z,270.00
2019-02-20T08:41:44.029Z,286.88
2019-02-20T08:42:44.022Z,303.75
2019-02-20T08:43:43.965Z,320.63
2019-02-20T08:44:43.934Z,320.63
2019-02-20T08:45:43.910Z,303.75
2019-02-20T08:46:43.869Z,292.50
2019-02-20T08:47:43.870Z,292.50
2019-02-20T08:48:43.835Z,298.13
2019-02-20T08:49:43.845Z,298.13
2019-02-20T08:50:43.755Z,292.50
2019-02-20T08:51:44.237Z,298.13
2019-02-20T08:52:43.714Z,320.63
2019-02-20T08:53:43.656Z,343.13
2019-02-20T08:54:43.629Z,348.75
2019-02-20T08:55:43.602Z,343.13
2019-02-20T08:56:44.230Z,337.50
2019-02-20T08:57:43.774Z,348.75
2019-02-20T08:58:43.644Z,348.75
2019-02-20T08:59:43.486Z,354.38
2019-02-20T09:00:43.442Z,365.63
2019-02-20T09:01:43.433Z,360.00
2019-02-20T09:02:43.403Z,343.13
2019-02-20T09:03:43.352Z,354.38
2019-02-20T09:04:43.321Z,354.38
2019-02-20T09:05:44.230Z,343.13
2019-02-20T09:06:43.261Z,331.88
2019-02-20T09:07:43.230Z,326.25
2019-02-20T09:08:43.263Z,320.63
2019-02-20T09:09:43.167Z,331.88
2019-02-20T09:10:43.141Z,348.75
2019-02-20T09:11:43.115Z,371.25
2019-02-20T09:12:43.741Z,393.75
2019-02-20T09:13:43.071Z,410.63
2019-02-20T09:14:43.017Z,438.75
2019-02-20T09:15:42.990Z,444.38
2019-02-20T09:16:42.959Z,427.50
2019-02-20T09:17:43.734Z,427.50
2019-02-20T09:18:43.265Z,433.13
2019-02-20T09:19:43.730Z,421.88
2019-02-20T09:20:43.738Z,416.25
2019-02-20T09:21:42.805Z,410.63
2019-02-20T09:22:43.733Z,405.00
2019-02-20T09:23:42.771Z,405.00
2019-02-20T09:24:42.722Z,416.25
2019-02-20T09:25:43.239Z,433.13
2019-02-20T09:26:43.245Z,444.38
2019-02-20T09:27:42.702Z,450.00
2019-02-20T09:28:42.629Z,450.00
2019-02-20T09:29:42.571Z,444.38
2019-02-20T09:30:42.540Z,444.38
2019-02-20T09:31:42.510Z,433.13
2019-02-20T09:32:42.485Z,421.88
2019-02-20T09:33:42.472Z,410.63
2019-02-20T09:34:42.421Z,427.50
2019-02-20T09:35:43.241Z,444.38
2019-02-20T09:36:43.238Z,450.00
2019-02-20T09:37:43.243Z,433.13
2019-02-20T09:38:42.770Z,444.38
2019-02-20T09:39:43.350Z,450.00
2019-02-20T09:40:43.238Z,444.38
2019-02-20T09:41:42.210Z,461.25
2019-02-20T09:42:42.736Z,478.13
2019-02-20T09:43:42.272Z,461.25
2019-02-20T09:44:42.122Z,444.38
2019-02-20T09:45:44.525Z,427.50
2019-02-20T09:46:42.737Z,427.50
2019-02-20T09:47:42.033Z,416.25
2019-02-20T09:48:42.276Z,416.25
2019-02-20T09:49:41.979Z,416.25
2019-02-20T09:50:41.945Z,416.25
2019-02-20T09:51:42.753Z,450.00
2019-02-20T09:52:51.680Z,472.50
2019-02-20T09:53:42.275Z,500.63
2019-02-20T09:54:41.829Z,506.25
2019-02-20T09:55:50.909Z,506.25
2019-02-20T09:56:41.853Z,500.63
2019-02-20T09:57:42.342Z,495.00
2019-02-20T09:58:41.884Z,489.38
2019-02-20T09:59:41.769Z,478.13
2019-02-20T10:00:41.654Z,466.88
2019-02-20T10:01:41.621Z,461.25
2019-02-20T10:02:42.243Z,450.00
2019-02-20T10:03:41.773Z,438.75
2019-02-20T10:04:41.538Z,444.38
2019-02-20T10:05:41.509Z,438.75
2019-02-20T10:06:42.243Z,455.63
2019-02-20T10:07:41.453Z,472.50
2019-02-20T10:08:41.440Z,500.63
2019-02-20T10:09:41.386Z,511.88
2019-02-20T10:10:42.240Z,500.63
2019-02-20T10:11:41.327Z,495.00
2019-02-20T10:12:41.296Z,500.63
2019-02-20T10:13:41.293Z,506.25
2019-02-20T10:14:41.746Z,517.50
2019-02-20T10:15:41.209Z,534.38
2019-02-20T10:16:41.178Z,534.38
2019-02-20T10:17:41.746Z,523.13
2019-02-20T10:18:41.149Z,511.88
2019-02-20T10:19:41.093Z,517.50
2019-02-20T10:20:41.068Z,523.13
2019-02-20T10:21:41.041Z,523.13
2019-02-20T10:22:41.752Z,545.63
2019-02-20T10:23:41.743Z,540.00
2019-02-20T10:24:41.000Z,528.75
2019-02-20T10:25:40.918Z,528.75
2019-02-20T10:26:40.886Z,517.50
2019-02-20T10:27:40.887Z,523.13
2019-02-20T10:28:41.743Z,523.13
2019-02-20T10:29:40.831Z,517.50
2019-02-20T10:30:40.790Z,517.50
2019-02-20T10:31:41.261Z,511.88
2019-02-20T10:32:41.249Z,506.25
2019-02-20T10:33:40.684Z,483.75
2019-02-20T10:34:40.689Z,472.50
2019-02-20T10:35:40.674Z,472.50
2019-02-20T10:36:40.606Z,489.38
2019-02-20T10:37:41.251Z,500.63
2019-02-20T10:38:41.246Z,489.38
2019-02-20T10:39:40.513Z,489.38
2019-02-20T10:40:40.515Z,495.00
2019-02-20T10:41:40.452Z,506.25
2019-02-20T10:42:40.422Z,511.88
2019-02-20T10:43:41.247Z,517.50
2019-02-20T10:44:40.365Z,517.50
2019-02-20T10:45:40.457Z,517.50
2019-02-20T10:46:40.312Z,500.63
2019-02-20T10:47:40.277Z,495.00
2019-02-20T10:48:40.759Z,500.63
2019-02-20T10:49:40.228Z,506.25
2019-02-20T10:50:40.189Z,495.00
2019-02-20T10:51:40.293Z,478.13
2019-02-20T10:52:40.133Z,455.63
2019-02-20T10:53:40.763Z,433.13
2019-02-20T10:54:40.079Z,405.00
2019-02-20T10:55:40.049Z,371.25
2019-02-20T10:56:40.294Z,354.38
2019-02-20T10:57:39.989Z,343.13
2019-02-20T10:58:39.967Z,326.25
2019-02-20T10:59:39.938Z,315.00
2019-02-20T11:00:39.899Z,303.75
2019-02-20T11:01:39.901Z,303.75
2019-02-20T11:02:40.753Z,309.38
2019-02-20T11:03:40.751Z,326.25
2019-02-20T11:04:39.827Z,337.50
2019-02-20T11:05:39.758Z,348.75
2019-02-20T11:06:39.758Z,348.75
2019-02-20T11:07:40.251Z,354.38
2019-02-20T11:08:39.667Z,360.00
2019-02-20T11:09:39.710Z,371.25
2019-02-20T11:10:39.610Z,382.50
2019-02-20T11:11:39.607Z,382.50
2019-02-20T11:12:39.556Z,354.38
2019-02-20T11:13:40.257Z,326.25
2019-02-20T11:14:39.491Z,309.38
2019-02-20T11:15:39.459Z,309.38
2019-02-20T11:16:39.457Z,303.75
2019-02-20T11:17:39.398Z,309.38
2019-02-20T11:18:39.366Z,315.00
2019-02-20T11:19:40.261Z,320.63
2019-02-20T11:20:48.458Z,326.25
2019-02-20T11:21:39.822Z,337.50
2019-02-20T11:22:39.783Z,343.13
2019-02-20T11:23:39.226Z,343.13
2019-02-20T11:24:39.198Z,348.75
2019-02-20T11:25:39.772Z,343.13
2019-02-20T11:26:50.310Z,343.13
2019-02-20T11:27:39.649Z,343.13
2019-02-20T11:28:39.066Z,348.75
2019-02-20T11:29:39.771Z,360.00
2019-02-20T11:30:39.006Z,365.63
2019-02-20T11:31:39.016Z,371.25
2019-02-20T11:32:38.944Z,382.50
2019-02-20T11:33:38.949Z,376.88
2019-02-20T11:34:38.890Z,376.88
2019-02-20T11:35:38.858Z,365.63
2019-02-20T11:36:40.482Z,348.75
2019-02-20T11:37:38.809Z,337.50
2019-02-20T11:38:38.771Z,331.88
2019-02-20T11:39:38.737Z,326.25
2019-02-20T11:40:38.702Z,315.00
2019-02-20T11:41:38.727Z,315.00
2019-02-20T11:42:38.650Z,315.00
2019-02-20T11:43:39.275Z,320.63
2019-02-20T11:44:38.594Z,326.25
2019-02-20T11:45:38.556Z,331.88
2019-02-20T11:46:38.528Z,337.50
2019-02-20T11:47:38.524Z,343.13
2019-02-20T11:48:38.489Z,348.75
2019-02-20T11:49:38.439Z,348.75
2019-02-20T11:50:38.408Z,360.00
2019-02-20T11:51:38.377Z,360.00
2019-02-20T11:52:38.771Z,360.00
2019-02-20T11:53:38.816Z,360.00
2019-02-20T11:54:38.288Z,365.63
2019-02-20T11:55:38.260Z,360.00
2019-02-20T11:56:38.230Z,365.63
2019-02-20T11:57:38.197Z,365.63
2019-02-20T11:58:38.174Z,365.63
2019-02-20T11:59:38.161Z,360.00
2019-02-20T12:00:38.105Z,354.38
2019-02-20T12:01:38.079Z,343.13
2019-02-20T12:02:38.049Z,331.88
2019-02-20T12:03:38.777Z,326.25
2019-02-20T12:04:38.021Z,331.88
2019-02-20T12:05:38.788Z,337.50
2019-02-20T12:06:38.777Z,331.88
2019-02-20T12:07:38.775Z,343.13
2019-02-20T12:08:38.779Z,326.25
2019-02-20T12:09:38.006Z,343.13
2019-02-20T12:10:37.818Z,343.13
2019-02-20T12:11:37.779Z,337.50
2019-02-20T12:12:38.287Z,326.25
2019-02-20T12:13:43.185Z,315.00
2019-02-20T12:14:37.718Z,315.00
2019-02-20T12:15:37.667Z,309.38
2019-02-20T12:16:38.281Z,309.38
2019-02-20T12:17:37.602Z,309.38
2019-02-20T12:18:37.574Z,315.00
2019-02-20T12:19:39.297Z,320.63
2019-02-20T12:20:38.277Z,320.63
2019-02-20T12:21:37.483Z,331.88
2019-02-20T12:22:37.452Z,337.50
2019-02-20T12:23:37.422Z,343.13
2019-02-20T12:24:37.415Z,360.00
2019-02-20T12:25:37.363Z,371.25
2019-02-20T12:26:37.334Z,365.63
2019-02-20T12:27:38.279Z,354.38
2019-02-20T12:28:37.275Z,360.00
2019-02-20T12:29:37.267Z,360.00
2019-02-20T12:30:38.131Z,354.38
2019-02-20T12:31:37.188Z,343.13
2019-02-20T12:32:37.788Z,326.25
2019-02-20T12:33:37.132Z,326.25
2019-02-20T12:34:37.121Z,315.00
2019-02-20T12:35:37.782Z,315.00
2019-02-20T12:36:37.048Z,315.00
2019-02-20T12:37:37.008Z,309.38
2019-02-20T12:38:37.785Z,303.75
2019-02-20T12:39:36.976Z,298.13
2019-02-20T12:40:37.795Z,286.88
2019-02-20T12:41:36.897Z,286.88
2019-02-20T12:42:37.782Z,281.25
2019-02-20T12:43:36.840Z,286.88
2019-02-20T12:44:36.829Z,292.50
2019-02-20T12:45:36.772Z,292.50
2019-02-20T12:46:37.284Z,320.63
2019-02-20T12:47:36.719Z,337.50
2019-02-20T12:48:36.686Z,365.63
2019-02-20T12:49:36.677Z,410.63
2019-02-20T12:50:37.339Z,455.63
2019-02-20T12:51:36.600Z,489.38
2019-02-20T12:52:36.565Z,534.38